Latest Coastal Weather Observations for Tasman Island

IDT60701

Issued at 12:42 am EDT Friday 3 February 2023 (issued every 10 minutes, with the page automatically refreshed every 10 minutes)

About coastal observations | Map of coastal stations | Coastal observations for TAS | Marine services | Other Formats
Station Details ID: 094155 Name: TASMAN ISLAND Lat: -43.24 Lon: 148.00 Height: 240.0 m
Data from the previous 72 hours. | See also: Recent months at Tasman Island
Date/Time
EDT
Wind Sea
Height
m
Swell Vis
km
Cloud Weather Temp
°C
Press
MSL
hPa
Rain since
9am
mm
Dir  Spd
kts
Gust
kts
Height
m
Period
s
Dir
03/12:30am NW 6 15 - - - - - - - 10.5 983.8 1.4
03/12:00am W 4 9 - - - - - - - 10.4 983.7 1.4
 
Date/Time
EDT
Wind Sea
Height
m
Swell Vis
km
Cloud Weather Temp
°C
Press
MSL
hPa
Rain since
9am
mm
Dir  Spd
kts
Gust
kts
Height
m
Period
s
Dir
02/11:30pm WNW 9 15 - - - - - - - 10.6 983.6 1.4
02/11:00pm WNW 4 11 - - - - - - - 10.5 983.9 1.4
02/10:30pm NW 8 12 - - - - - - - 10.7 984.3 1.4
02/10:00pm WNW 7 12 - - - - - - - 10.7 984.5 1.4
02/09:30pm WNW 9 16 - - - - - - - 10.6 984.4 1.4
02/09:00pm NNW 3 6 - - - - - - - 10.1 984.1 1.4
02/08:30pm NW 5 10 - - - - - - - 10.8 984.0 1.4
02/08:00pm NE 4 6 - - - - - - - 10.6 983.2 1.4
02/07:30pm NNE 3 7 - - - - - - - 10.6 983.1 1.2
02/07:00pm WNW 6 11 - - - - - - - 10.3 982.7 1.0
02/06:30pm W 5 10 - - - - - - - 10.2 982.5 1.0
02/06:00pm W 7 21 - - - - - - Rain 10.3 982.7 0.2
02/05:39pm N 16 39 - - - - - - - 14.1 982.4 0.0
02/05:30pm N 26 40 - - - - - - - 15.2 982.2 0.0
02/05:00pm N 24 39 - - - - - - - 15.3 981.8 0.0
02/04:30pm N 20 37 - - - - - - - 16.2 982.0 0.0
02/04:14pm N 27 39 - - - - - - - 16.1 982.3 0.0
02/04:00pm N 24 34 - - - - - - - 15.4 982.4 0.0
02/03:48pm N 24 34 - - - - - - - 15.9 982.6 0.0
02/03:30pm NNE 26 35 - - - - - - - 14.4 982.8 0.0
02/03:00pm NNE 26 37 - - - - - - - 14.1 982.9 0.0
02/02:30pm N 21 38 - - - - - - - 15.0 983.6 0.0
02/02:08pm N 24 35 - - - - - - - 14.8 983.5 0.0
02/02:00pm NNE 23 32 - - - - - - - 14.0 983.7 0.0
02/01:33pm NNE 20 31 - - - - - - - 13.7 984.6 0.0
02/01:30pm NNE 21 31 - - - - - - - 13.5 984.7 0.0
02/01:00pm N 22 29 - - - - - - - 13.1 985.3 0.0
02/12:30pm N 23 30 - - - - - - - 12.7 985.8 0.0
02/12:00pm N 22 30 - - - - - - - 12.5 986.3 0.0
02/11:30am N 21 29 - - - - - - - 12.2 986.8 0.0
02/11:08am NNW 20 31 - - - - - - - 12.6 987.2 0.0
02/11:00am NNW 21 29 - - - - - - - 12.3 987.2 0.0
02/10:57am NNW 22 29 - - - - - - - 12.1 987.2 0.0
02/10:36am NW 21 31 - - - - - - - 12.1 987.4 0.0
02/10:30am NW 23 31 - - - - - - - 12.5 987.4 0.0
02/10:02am NW 18 32 - - - - - - - 12.1 987.9 0.0
02/10:00am NW 18 27 - - - - - - - 11.9 988.0 0.0
02/09:32am NW 19 30 - - - - - - - 11.8 988.6 0.0
02/09:30am NW 20 30 - - - - - - - 11.7 988.5 0.0
02/09:07am NW 18 30 - - - - - - - 11.0 989.2 0.0
02/09:00am NW 18 25 - - - - - - - 11.0 989.3 4.6
02/08:30am NW 17 27 - - - - - - - 10.6 990.0 4.6
02/08:00am NW 15 23 - - - - - - - 10.4 990.5 4.6
02/07:30am NW 12 18 - - - - - - - 9.7 991.3 4.6
02/07:00am NNW 9 15 - - - - - - - 10.8 992.0 4.0
02/06:30am NNW 6 12 - - - - - - - 10.9 992.2 3.8
02/06:00am N 13 18 - - - - - - - 10.7 992.7 3.8
02/05:30am N 14 19 - - - - - - - 10.5 992.9 3.8
02/05:00am N 14 19 - - - - - - - 10.1 993.4 3.8
02/04:30am N 17 25 - - - - - - - 11.0 994.0 3.8
02/04:00am N 8 19 - - - - - - - 11.6 994.4 3.8
02/03:30am N 7 12 - - - - - - - 11.3 995.2 3.8
02/03:00am NNW 7 10 - - - - - - - 11.3 996.0 3.8
02/02:30am N 8 13 - - - - - - - 11.0 996.8 3.8
02/02:00am N 8 11 - - - - - - - 10.7 997.5 3.8
02/01:30am NNW 6 9 - - - - - - - 10.2 997.9 3.8
02/01:00am NNW 4 7 - - - - - - - 10.1 998.2 3.8
02/12:30am WNW 2 6 - - - - - - - 10.8 998.5 3.8
02/12:00am W 3 10 - - - - - - - 11.1 998.9 3.8
 
Date/Time
EDT
Wind Sea
Height
m
Swell Vis
km
Cloud Weather Temp
°C
Press
MSL
hPa
Rain since
9am
mm
Dir  Spd
kts
Gust
kts
Height
m
Period
s
Dir
01/11:30pm SW 6 11 - - - - - - - 10.8 999.2 3.8
01/11:00pm SSW 6 13 - - - - - - - 11.1 999.8 3.8
01/10:30pm SSW 8 16 - - - - - - - 11.0 1000.2 3.8
01/10:00pm SSW 8 13 - - - - - - - 11.0 1000.5 3.8
01/09:30pm SSW 8 13 - - - - - - - 11.1 1000.6 3.8
01/09:00pm SSW 9 15 - - - - - - - 11.2 1000.5 3.8
01/08:30pm SSW 11 23 - - - - - - - 11.6 1000.3 3.8
01/08:00pm SSW 15 22 - - - - - - - 12.0 1000.1 3.8
01/07:36pm SSW 15 27 - - - - - - - 12.1 1000.0 3.8
01/07:30pm SSW 13 28 - - - - - - - 12.3 1000.0 3.8
01/07:08pm SSW 15 27 - - - - - - - 12.5 999.8 3.8
01/07:00pm SSW 13 27 - - - - - - - 12.6 999.9 3.8
01/06:48pm SSW 15 28 - - - - - - - 12.6 999.7 3.8
01/06:30pm SSW 13 27 - - - - - - - 12.9 999.7 3.8
01/06:00pm SSW 16 27 - - - - - - - 13.1 999.7 3.8
01/05:30pm SSW 19 31 - - - - - - - 13.1 999.9 3.8
01/05:00pm SSW 21 33 - - - - - - - 12.4 1000.2 3.8
01/04:30pm SW 17 36 - - - - - - - 12.3 1000.3 3.8
01/04:00pm SSW 22 37 - - - - - - - 12.6 1000.2 3.8
01/03:42pm SW 15 38 - - - - - - - 12.5 1000.2 3.8
01/03:30pm SW 14 28 - - - - - - - 13.1 1000.2 3.8
01/03:27pm SW 15 28 - - - - - - - 13.3 1000.1 3.8
01/03:00pm SW 13 25 - - - - - - - 13.0 999.8 3.8
01/02:30pm SW 14 33 - - - - - - - 11.6 999.8 3.8
01/02:00pm SW 12 27 - - - - - - - 10.9 999.9 3.8
01/01:30pm SW 13 32 - - - - - - - 10.4 1000.1 3.4
01/01:00pm WSW 17 35 - - - - - - - 10.3 1000.0 2.6
01/12:30pm SW 16 35 - - - - - - - 10.4 1000.0 2.2
01/12:00pm SSW 19 39 - - - - - - Recent precip. 10.0 1000.0 1.8
01/11:30am SW 17 45 - - - - - - - 10.1 1000.0 1.4
01/11:00am SW 16 36 - - - - - - - 10.3 999.8 1.0
01/10:30am SSW 17 38 - - - - - - - 10.7 999.2 1.0
01/10:08am SW 15 29 - - - - - - - 11.6 998.8 0.6
01/10:00am SW 11 27 - - - - - - - 11.9 998.8 0.0
01/09:30am SSW 11 31 - - - - - - - 12.1 998.4 0.0
01/09:00am SE 3 10 - - - - - - - 17.1 998.5 0.0
01/08:30am WNW 5 14 - - - - - - - 16.6 998.4 0.0
01/08:00am WNW 6 15 - - - - - - - 15.4 998.5 0.0
01/07:30am WNW 8 15 - - - - - - - 15.1 998.5 0.0
01/07:00am WNW 9 13 - - - - - - - 14.6 998.5 0.0
01/06:30am WNW 5 11 - - - - - - - 14.2 998.6 0.0
01/06:00am WNW 5 9 - - - - - - - 14.3 998.8 0.0
01/05:30am WNW 6 15 - - - - - - - 14.7 998.8 0.0
01/05:00am WNW 4 12 - - - - - - - 14.8 998.9 0.0
01/04:30am W 4 11 - - - - - - - 14.9 999.0 0.0
01/04:00am WSW 9 13 - - - - - - - 15.0 999.2 0.0
01/03:30am SW 7 10 - - - - - - - 15.1 999.4 0.0
01/03:00am SW 9 11 - - - - - - - 14.9 999.8 0.0
01/02:30am SSW 10 15 - - - - - - - 14.7 1000.1 0.0
01/02:00am SW 10 14 - - - - - - - 15.4 1000.6 0.0
01/01:30am W 5 8 - - - - - - - 16.2 1001.0 0.0
01/01:00am NW 3 4 - - - - - - - 16.2 1001.5 0.0
01/12:30am NNE 3 4 - - - - - - - 16.3 1001.8 0.0
01/12:00am NE 3 5 - - - - - - - 16.4 1002.1 0.0
 
Date/Time
EDT
Wind Sea
Height
m
Swell Vis
km
Cloud Weather Temp
°C
Press
MSL
hPa
Rain since
9am
mm
Dir  Spd
kts
Gust
kts
Height
m
Period
s
Dir
31/11:30pm NNE 3 5 - - - - - - - 16.4 1002.4 0.0
31/11:00pm E 4 6 - - - - - - - 16.5 1002.8 0.0
31/10:30pm NE 3 7 - - - - - - - 16.6 1003.1 0.0
31/10:00pm NE 1 5 - - - - - - - 16.5 1003.2 0.0
31/09:30pm NNE 5 13 - - - - - - - 16.5 1003.3 0.0
31/09:00pm E 3 8 - - - - - - - 16.3 1003.2 0.0
31/08:30pm NNE 2 7 - - - - - - - 16.3 1003.4 0.0
31/08:00pm NNE 2 6 - - - - - - - 16.4 1003.2 0.0
31/07:30pm N 2 7 - - - - - - - 16.5 1003.2 0.0
31/07:00pm N 4 11 - - - - - - - 16.6 1003.1 0.0
31/06:30pm NNE 4 9 - - - - - - - 16.8 1003.2 0.0
31/06:00pm NE 3 8 - - - - - - - 16.9 1003.3 0.0
31/05:30pm NW 4 10 - - - - - - - 17.4 1003.5 0.0
31/05:00pm N 4 13 - - - - - - - 17.8 1003.6 0.0
31/04:30pm ENE 7 15 - - - - - - - 17.4 1004.1 0.0
31/04:00pm ENE 8 15 - - - - - - - 17.9 1004.3 0.0
31/03:30pm NE 3 9 - - - - - - - 17.4 1004.6 0.0
31/03:00pm ENE 4 10 - - - - - - - 18.6 1004.8 0.0
31/02:30pm E 4 8 - - - - - - - 19.4 1005.2 0.0
31/02:00pm E 5 7 - - - - - - - 18.9 1005.3 0.0
31/01:30pm E 4 6 - - - - - - - 19.0 1005.5 0.0
31/01:00pm ESE 2 4 - - - - - - - 17.5 1005.8 0.0
31/12:30pm ESE 2 5 - - - - - - - 17.8 1005.9 0.0
31/12:00pm SW 2 4 - - - - - - - 16.7 1006.3 0.0
31/11:30am WSW 4 5 - - - - - - - 17.1 1006.7 0.0
31/11:00am W 4 6 - - - - - - - 16.8 1006.7 0.0
31/10:30am W 4 8 - - - - - - - 15.8 1007.1 0.0
31/10:00am WNW 4 8 - - - - - - - 16.9 1007.2 0.0
31/09:30am WNW 3 5 - - - - - - - 16.1 1007.6 0.0
31/09:00am W 4 6 - - - - - - - 15.7 1007.8 0.0
31/08:30am WNW 3 5 - - - - - - - 16.3 1007.8 0.0
31/08:00am NW 3 5 - - - - - - - 15.5 1007.7 0.0
31/07:30am NNW 5 8 - - - - - - - 15.1 1007.8 0.0
31/07:00am WNW 2 4 - - - - - - - 15.0 1007.7 0.0
31/06:30am N 11 14 - - - - - - - 15.2 1007.5 0.0
31/06:00am N 10 13 - - - - - - - 15.3 1007.5 0.0
31/05:30am N 10 14 - - - - - - - 15.2 1007.6 0.0
31/05:00am N 9 12 - - - - - - - 15.0 1007.6 0.0
31/04:30am N 8 11 - - - - - - - 15.1 1007.8 0.0
31/04:00am N 6 9 - - - - - - - 15.1 1008.0 0.0
31/03:30am N 5 10 - - - - - - - 15.1 1008.4 0.0
31/03:00am N 6 10 - - - - - - - 15.1 1008.6 0.0
31/02:30am N 7 10 - - - - - - - 15.0 1009.0 0.0
31/02:00am N 8 12 - - - - - - - 15.3 1009.3 0.0
31/01:30am N 7 11 - - - - - - - 15.3 1009.7 0.0
31/01:00am NNE 8 11 - - - - - - - 15.4 1010.0 0.0

Other formats

Comma delimited format used in spreadsheet applications
http://www.bom.gov.au/fwo/IDT60701/IDT60701.95986.axf

JavaScript Object Notation format (JSON) in row-major order
http://www.bom.gov.au/fwo/IDT60701/IDT60701.95986.json

Data quality

Most of these data are generated automatically and are frequently updated. Quality checks on data are not normally performed. It is possible for incorrect values to appear. Refer to information at About Latest Weather Observations and please check the disclaimer before using these data.